sensor_id;sensor_type;location;lat;lon;timestamp;pressure;altitude;pressure_sealevel;temperature
45393;BMP280;31129;44.810;10.334;2022-08-07T00:01:03;100832.56;;;29.18
45393;BMP280;31129;44.810;10.334;2022-08-07T00:03:29;100830.59;;;28.78
45393;BMP280;31129;44.810;10.334;2022-08-07T00:05:54;100831.31;;;28.38
45393;BMP280;31129;44.810;10.334;2022-08-07T00:08:20;100816.88;;;28.23
45393;BMP280;31129;44.810;10.334;2022-08-07T00:10:51;100808.78;;;28.17
45393;BMP280;31129;44.810;10.334;2022-08-07T00:13:18;100795.94;;;28.14
45393;BMP280;31129;44.810;10.334;2022-08-07T00:15:44;100781.69;;;27.91
45393;BMP280;31129;44.810;10.334;2022-08-07T00:18:10;100772.72;;;27.73
45393;BMP280;31129;44.810;10.334;2022-08-07T00:20:37;100773.28;;;27.72
45393;BMP280;31129;44.810;10.334;2022-08-07T00:23:03;100782.59;;;27.36
45393;BMP280;31129;44.810;10.334;2022-08-07T00:25:31;100765.59;;;27.14
45393;BMP280;31129;44.810;10.334;2022-08-07T00:27:57;100767.50;;;26.93
45393;BMP280;31129;44.810;10.334;2022-08-07T00:30:23;100766.50;;;27.07
45393;BMP280;31129;44.810;10.334;2022-08-07T00:32:49;100771.06;;;27.03
45393;BMP280;31129;44.810;10.334;2022-08-07T00:35:17;100778.41;;;26.98
45393;BMP280;31129;44.810;10.334;2022-08-07T00:37:43;100792.00;;;27.11
45393;BMP280;31129;44.810;10.334;2022-08-07T00:40:09;100813.84;;;27.03
45393;BMP280;31129;44.810;10.334;2022-08-07T00:42:35;100822.72;;;27.09
45393;BMP280;31129;44.810;10.334;2022-08-07T00:45:01;100840.50;;;27.50
45393;BMP280;31129;44.810;10.334;2022-08-07T00:47:27;100858.41;;;27.09
45393;BMP280;31129;44.810;10.334;2022-08-07T00:49:52;100869.25;;;26.95
45393;BMP280;31129;44.810;10.334;2022-08-07T00:52:18;100867.03;;;26.57
45393;BMP280;31129;44.810;10.334;2022-08-07T00:54:47;100871.38;;;26.68
45393;BMP280;31129;44.810;10.334;2022-08-07T00:57:15;100872.72;;;26.50
45393;BMP280;31129;44.810;10.334;2022-08-07T00:59:41;100890.22;;;26.67
45393;BMP280;31129;44.810;10.334;2022-08-07T01:02:07;100890.72;;;26.56
45393;BMP280;31129;44.810;10.334;2022-08-07T01:04:33;100893.75;;;26.58
45393;BMP280;31129;44.810;10.334;2022-08-07T01:07:00;100881.31;;;26.52
45393;BMP280;31129;44.810;10.334;2022-08-07T01:09:27;100888.00;;;26.66
45393;BMP280;31129;44.810;10.334;2022-08-07T01:11:53;100882.25;;;26.64
45393;BMP280;31129;44.810;10.334;2022-08-07T01:14:20;100890.44;;;26.79
45393;BMP280;31129;44.810;10.334;2022-08-07T01:16:46;100886.75;;;26.77
45393;BMP280;31129;44.810;10.334;2022-08-07T01:19:13;100887.19;;;26.83
45393;BMP280;31129;44.810;10.334;2022-08-07T01:21:39;100877.59;;;26.76
45393;BMP280;31129;44.810;10.334;2022-08-07T01:24:06;100871.56;;;26.80
45393;BMP280;31129;44.810;10.334;2022-08-07T01:26:32;100869.81;;;26.84
45393;BMP280;31129;44.810;10.334;2022-08-07T01:28:58;100860.66;;;26.84
45393;BMP280;31129;44.810;10.334;2022-08-07T01:31:25;100850.50;;;26.88
45393;BMP280;31129;44.810;10.334;2022-08-07T01:34:00;100842.72;;;26.96
45393;BMP280;31129;44.810;10.334;2022-08-07T01:36:33;100843.03;;;27.00
45393;BMP280;31129;44.810;10.334;2022-08-07T01:39:00;100836.19;;;26.84
45393;BMP280;31129;44.810;10.334;2022-08-07T01:41:26;100836.53;;;26.98
45393;BMP280;31129;44.810;10.334;2022-08-07T01:43:53;100833.22;;;26.82
45393;BMP280;31129;44.810;10.334;2022-08-07T01:46:19;100838.69;;;26.80
45393;BMP280;31129;44.810;10.334;2022-08-07T01:48:47;100847.72;;;26.88
45393;BMP280;31129;44.810;10.334;2022-08-07T01:51:21;100854.56;;;27.04
45393;BMP280;31129;44.810;10.334;2022-08-07T01:53:50;100860.81;;;27.22
45393;BMP280;31129;44.810;10.334;2022-08-07T01:56:30;100857.13;;;27.20
45393;BMP280;31129;44.810;10.334;2022-08-07T01:59:06;100854.56;;;27.14
45393;BMP280;31129;44.810;10.334;2022-08-07T02:01:37;100853.94;;;26.96
45393;BMP280;31129;44.810;10.334;2022-08-07T02:04:14;100843.06;;;27.10
45393;BMP280;31129;44.810;10.334;2022-08-07T02:06:46;100841.69;;;26.92
45393;BMP280;31129;44.810;10.334;2022-08-07T02:09:16;100838.47;;;27.05
45393;BMP280;31129;44.810;10.334;2022-08-07T02:11:44;100826.69;;;27.06
45393;BMP280;31129;44.810;10.334;2022-08-07T02:14:11;100821.53;;;27.03
45393;BMP280;31129;44.810;10.334;2022-08-07T02:16:38;100807.34;;;27.10
45393;BMP280;31129;44.810;10.334;2022-08-07T02:19:06;100808.53;;;26.98
45393;BMP280;31129;44.810;10.334;2022-08-07T02:21:36;100800.41;;;27.02
45393;BMP280;31129;44.810;10.334;2022-08-07T02:24:03;100792.16;;;26.94
45393;BMP280;31129;44.810;10.334;2022-08-07T02:26:31;100787.38;;;26.78
45393;BMP280;31129;44.810;10.334;2022-08-07T02:28:57;100786.38;;;27.02
45393;BMP280;31129;44.810;10.334;2022-08-07T02:31:23;100768.09;;;26.91
45393;BMP280;31129;44.810;10.334;2022-08-07T02:33:50;100761.75;;;26.91
45393;BMP280;31129;44.810;10.334;2022-08-07T02:36:17;100763.94;;;26.83
45393;BMP280;31129;44.810;10.334;2022-08-07T02:38:43;100770.00;;;26.98
45393;BMP280;31129;44.810;10.334;2022-08-07T02:41:11;100768.84;;;27.11
45393;BMP280;31129;44.810;10.334;2022-08-07T02:43:41;100767.38;;;27.00
45393;BMP280;31129;44.810;10.334;2022-08-07T02:46:08;100765.53;;;26.86
45393;BMP280;31129;44.810;10.334;2022-08-07T02:48:39;100762.66;;;27.12
45393;BMP280;31129;44.810;10.334;2022-08-07T02:51:08;100772.38;;;27.11
45393;BMP280;31129;44.810;10.334;2022-08-07T02:53:36;100773.72;;;27.10
45393;BMP280;31129;44.810;10.334;2022-08-07T02:56:03;100777.09;;;26.99
45393;BMP280;31129;44.810;10.334;2022-08-07T02:58:30;100774.19;;;27.26
45393;BMP280;31129;44.810;10.334;2022-08-07T03:00:57;100779.94;;;27.18
45393;BMP280;31129;44.810;10.334;2022-08-07T03:03:25;100787.28;;;27.04
45393;BMP280;31129;44.810;10.334;2022-08-07T03:05:53;100790.53;;;27.01
45393;BMP280;31129;44.810;10.334;2022-08-07T03:08:20;100796.75;;;27.09
45393;BMP280;31129;44.810;10.334;2022-08-07T03:10:49;100815.66;;;27.28
45393;BMP280;31129;44.810;10.334;2022-08-07T03:13:24;100811.22;;;27.25
45393;BMP280;31129;44.810;10.334;2022-08-07T03:15:52;100819.06;;;27.36
45393;BMP280;31129;44.810;10.334;2022-08-07T03:18:18;100818.56;;;27.01
45393;BMP280;31129;44.810;10.334;2022-08-07T03:20:45;100816.88;;;26.88
45393;BMP280;31129;44.810;10.334;2022-08-07T03:23:11;100817.19;;;26.92
45393;BMP280;31129;44.810;10.334;2022-08-07T03:25:39;100821.09;;;27.06
45393;BMP280;31129;44.810;10.334;2022-08-07T03:28:09;100823.41;;;27.00
45393;BMP280;31129;44.810;10.334;2022-08-07T03:30:37;100822.28;;;27.13
45393;BMP280;31129;44.810;10.334;2022-08-07T03:33:03;100821.25;;;27.18
45393;BMP280;31129;44.810;10.334;2022-08-07T03:35:32;100826.09;;;27.08
45393;BMP280;31129;44.810;10.334;2022-08-07T03:38:01;100839.66;;;27.11
45393;BMP280;31129;44.810;10.334;2022-08-07T03:40:30;100844.13;;;27.24
45393;BMP280;31129;44.810;10.334;2022-08-07T03:42:57;100845.91;;;27.29
45393;BMP280;31129;44.810;10.334;2022-08-07T03:45:26;100857.78;;;27.01
45393;BMP280;31129;44.810;10.334;2022-08-07T03:47:53;100861.91;;;27.00
45393;BMP280;31129;44.810;10.334;2022-08-07T03:50:20;100868.75;;;26.53
45393;BMP280;31129;44.810;10.334;2022-08-07T03:52:48;100875.38;;;26.48
45393;BMP280;31129;44.810;10.334;2022-08-07T03:55:15;100881.06;;;26.40
45393;BMP280;31129;44.810;10.334;2022-08-07T03:57:44;100880.72;;;26.27
45393;BMP280;31129;44.810;10.334;2022-08-07T04:00:11;100879.38;;;26.28
45393;BMP280;31129;44.810;10.334;2022-08-07T04:02:40;100884.16;;;26.17
45393;BMP280;31129;44.810;10.334;2022-08-07T04:05:19;100885.91;;;26.13
45393;BMP280;31129;44.810;10.334;2022-08-07T04:07:46;100892.88;;;26.04
45393;BMP280;31129;44.810;10.334;2022-08-07T04:10:15;100893.97;;;26.09
45393;BMP280;31129;44.810;10.334;2022-08-07T04:12:41;100895.28;;;26.08
45393;BMP280;31129;44.810;10.334;2022-08-07T04:15:08;100890.41;;;26.08
45393;BMP280;31129;44.810;10.334;2022-08-07T04:17:36;100891.09;;;25.99
45393;BMP280;31129;44.810;10.334;2022-08-07T04:20:03;100893.00;;;25.97
45393;BMP280;31129;44.810;10.334;2022-08-07T04:22:31;100894.06;;;26.01
45393;BMP280;31129;44.810;10.334;2022-08-07T04:25:01;100892.47;;;26.08
45393;BMP280;31129;44.810;10.334;2022-08-07T04:27:27;100900.81;;;25.98
45393;BMP280;31129;44.810;10.334;2022-08-07T04:29:57;100903.28;;;26.11
45393;BMP280;31129;44.810;10.334;2022-08-07T04:32:22;100912.16;;;26.17
45393;BMP280;31129;44.810;10.334;2022-08-07T04:34:48;100915.03;;;26.10
45393;BMP280;31129;44.810;10.334;2022-08-07T04:37:15;100917.00;;;26.17
45393;BMP280;31129;44.810;10.334;2022-08-07T04:39:41;100925.66;;;26.11
45393;BMP280;31129;44.810;10.334;2022-08-07T04:42:07;100928.06;;;26.15
45393;BMP280;31129;44.810;10.334;2022-08-07T04:44:34;100938.78;;;26.53
45393;BMP280;31129;44.810;10.334;2022-08-07T04:48:01;100941.03;;;25.86
45393;BMP280;31129;44.810;10.334;2022-08-07T04:50:11;100944.75;;;25.14
45393;BMP280;31129;44.810;10.334;2022-08-07T04:53:11;100946.09;;;25.13
45393;BMP280;31129;44.810;10.334;2022-08-07T04:55:54;100948.81;;;24.96
45393;BMP280;31129;44.810;10.334;2022-08-07T04:58:36;100953.31;;;25.16
45393;BMP280;31129;44.810;10.334;2022-08-07T05:01:16;100961.94;;;25.03
45393;BMP280;31129;44.810;10.334;2022-08-07T05:06:20;100960.19;;;24.82
45393;BMP280;31129;44.810;10.334;2022-08-07T05:09:02;100961.13;;;24.85
45393;BMP280;31129;44.810;10.334;2022-08-07T05:11:44;100971.03;;;24.78
45393;BMP280;31129;44.810;10.334;2022-08-07T05:14:36;100970.22;;;24.85
45393;BMP280;31129;44.810;10.334;2022-08-07T05:17:06;100966.22;;;24.71
45393;BMP280;31129;44.810;10.334;2022-08-07T05:19:44;100963.94;;;24.85
45393;BMP280;31129;44.810;10.334;2022-08-07T05:22:15;100967.91;;;24.74
45393;BMP280;31129;44.810;10.334;2022-08-07T05:24:43;100966.03;;;24.69
45393;BMP280;31129;44.810;10.334;2022-08-07T05:27:12;100967.19;;;24.59
45393;BMP280;31129;44.810;10.334;2022-08-07T05:29:41;100971.97;;;24.73
45393;BMP280;31129;44.810;10.334;2022-08-07T05:32:10;100970.81;;;24.84
45393;BMP280;31129;44.810;10.334;2022-08-07T05:34:36;100964.72;;;24.70
45393;BMP280;31129;44.810;10.334;2022-08-07T05:37:05;100974.91;;;24.91
45393;BMP280;31129;44.810;10.334;2022-08-07T05:39:40;100971.97;;;24.73
45393;BMP280;31129;44.810;10.334;2022-08-07T05:42:06;100965.31;;;24.61
45393;BMP280;31129;44.810;10.334;2022-08-07T05:44:35;100966.81;;;24.55
45393;BMP280;31129;44.810;10.334;2022-08-07T05:47:03;100969.84;;;24.49
45393;BMP280;31129;44.810;10.334;2022-08-07T05:49:30;100966.13;;;24.47
45393;BMP280;31129;44.810;10.334;2022-08-07T05:51:56;100961.47;;;24.41
45393;BMP280;31129;44.810;10.334;2022-08-07T05:54:24;100958.53;;;24.24
45393;BMP280;31129;44.810;10.334;2022-08-07T05:56:53;100956.31;;;24.23
45393;BMP280;31129;44.810;10.334;2022-08-07T05:59:20;100942.19;;;24.28
45393;BMP280;31129;44.810;10.334;2022-08-07T06:01:50;100933.44;;;24.24
45393;BMP280;31129;44.810;10.334;2022-08-07T06:04:18;100920.97;;;24.25
45393;BMP280;31129;44.810;10.334;2022-08-07T06:06:45;100920.78;;;24.31
45393;BMP280;31129;44.810;10.334;2022-08-07T06:09:13;100905.31;;;24.30
45393;BMP280;31129;44.810;10.334;2022-08-07T06:11:43;100908.13;;;24.30
45393;BMP280;31129;44.810;10.334;2022-08-07T06:14:09;100895.84;;;24.73
45393;BMP280;31129;44.810;10.334;2022-08-07T06:16:37;100896.31;;;24.86
45393;BMP280;31129;44.810;10.334;2022-08-07T06:19:03;100884.47;;;25.03
45393;BMP280;31129;44.810;10.334;2022-08-07T06:21:30;100876.47;;;25.07
45393;BMP280;31129;44.810;10.334;2022-08-07T06:23:56;100873.84;;;25.09
45393;BMP280;31129;44.810;10.334;2022-08-07T06:26:24;100855.19;;;25.12
45393;BMP280;31129;44.810;10.334;2022-08-07T06:28:55;100848.44;;;25.15
45393;BMP280;31129;44.810;10.334;2022-08-07T06:31:27;100835.69;;;25.29
45393;BMP280;31129;44.810;10.334;2022-08-07T06:33:54;100837.09;;;25.55
45393;BMP280;31129;44.810;10.334;2022-08-07T06:36:20;100844.41;;;25.33
45393;BMP280;31129;44.810;10.334;2022-08-07T06:38:55;100853.28;;;25.39
45393;BMP280;31129;44.810;10.334;2022-08-07T06:41:37;100871.25;;;25.28
45393;BMP280;31129;44.810;10.334;2022-08-07T06:44:04;100877.81;;;25.23
45393;BMP280;31129;44.810;10.334;2022-08-07T06:46:32;100882.09;;;25.24
45393;BMP280;31129;44.810;10.334;2022-08-07T06:48:59;100895.41;;;25.33
45393;BMP280;31129;44.810;10.334;2022-08-07T06:51:28;100897.22;;;25.46
45393;BMP280;31129;44.810;10.334;2022-08-07T06:53:57;100901.97;;;25.36
45393;BMP280;31129;44.810;10.334;2022-08-07T06:56:30;100897.22;;;25.46
45393;BMP280;31129;44.810;10.334;2022-08-07T06:59:31;100892.03;;;25.43
45393;BMP280;31129;44.810;10.334;2022-08-07T07:02:01;100888.59;;;25.52
45393;BMP280;31129;44.810;10.334;2022-08-07T07:04:28;100878.53;;;25.49
45393;BMP280;31129;44.810;10.334;2022-08-07T07:06:58;100884.06;;;25.56
45393;BMP280;31129;44.810;10.334;2022-08-07T07:09:24;100887.44;;;25.55
45393;BMP280;31129;44.810;10.334;2022-08-07T07:14:20;100884.34;;;25.68
45393;BMP280;31129;44.810;10.334;2022-08-07T07:16:49;100875.69;;;25.56
45393;BMP280;31129;44.810;10.334;2022-08-07T07:19:18;100882.88;;;25.67
45393;BMP280;31129;44.810;10.334;2022-08-07T07:21:46;100900.06;;;25.81
45393;BMP280;31129;44.810;10.334;2022-08-07T07:24:12;100909.09;;;25.71
45393;BMP280;31129;44.810;10.334;2022-08-07T07:26:39;100918.81;;;25.88
45393;BMP280;31129;44.810;10.334;2022-08-07T07:29:11;100930.59;;;25.86
45393;BMP280;31129;44.810;10.334;2022-08-07T07:31:40;100938.06;;;26.01
45393;BMP280;31129;44.810;10.334;2022-08-07T07:34:11;100946.88;;;25.97
45393;BMP280;31129;44.810;10.334;2022-08-07T07:36:40;100945.88;;;25.85
45393;BMP280;31129;44.810;10.334;2022-08-07T07:39:09;100946.22;;;25.89
45393;BMP280;31129;44.810;10.334;2022-08-07T07:41:37;100952.56;;;25.90
45393;BMP280;31129;44.810;10.334;2022-08-07T07:44:05;100958.72;;;25.88
45393;BMP280;31129;44.810;10.334;2022-08-07T07:46:34;100947.06;;;25.99
45393;BMP280;31129;44.810;10.334;2022-08-07T07:49:01;100947.28;;;25.94
45393;BMP280;31129;44.810;10.334;2022-08-07T07:51:28;100948.84;;;26.04
45393;BMP280;31129;44.810;10.334;2022-08-07T07:53:58;100953.88;;;26.06
45393;BMP280;31129;44.810;10.334;2022-08-07T07:56:29;100965.34;;;26.00
45393;BMP280;31129;44.810;10.334;2022-08-07T07:58:57;100960.53;;;25.93
45393;BMP280;31129;44.810;10.334;2022-08-07T08:01:25;100954.63;;;25.89
45393;BMP280;31129;44.810;10.334;2022-08-07T08:03:54;100948.69;;;25.85
45393;BMP280;31129;44.810;10.334;2022-08-07T08:06:23;100950.47;;;25.73
45393;BMP280;31129;44.810;10.334;2022-08-07T08:08:51;100945.75;;;26.00
45393;BMP280;31129;44.810;10.334;2022-08-07T08:11:17;100949.50;;;25.95
45393;BMP280;31129;44.810;10.334;2022-08-07T08:13:47;100953.72;;;26.04
45393;BMP280;31129;44.810;10.334;2022-08-07T08:16:21;100956.94;;;26.00
45393;BMP280;31129;44.810;10.334;2022-08-07T08:18:49;100958.59;;;26.03
45393;BMP280;31129;44.810;10.334;2022-08-07T08:21:16;100955.94;;;26.22
45393;BMP280;31129;44.810;10.334;2022-08-07T08:24:02;100960.94;;;26.24
45393;BMP280;31129;44.810;10.334;2022-08-07T08:26:58;100967.66;;;26.29
45393;BMP280;31129;44.810;10.334;2022-08-07T08:29:41;100954.22;;;26.10
45393;BMP280;31129;44.810;10.334;2022-08-07T08:32:09;100959.25;;;26.11
45393;BMP280;31129;44.810;10.334;2022-08-07T08:34:38;100951.59;;;26.12
45393;BMP280;31129;44.810;10.334;2022-08-07T08:37:06;100954.44;;;26.04
45393;BMP280;31129;44.810;10.334;2022-08-07T08:39:33;100953.47;;;26.09
45393;BMP280;31129;44.810;10.334;2022-08-07T08:42:05;100943.84;;;26.03
45393;BMP280;31129;44.810;10.334;2022-08-07T08:44:42;100951.19;;;26.15
45393;BMP280;31129;44.810;10.334;2022-08-07T08:47:29;100956.28;;;26.09
45393;BMP280;31129;44.810;10.334;2022-08-07T08:52:32;100958.09;;;26.32
45393;BMP280;31129;44.810;10.334;2022-08-07T08:55:12;100957.84;;;26.20
45393;BMP280;31129;44.810;10.334;2022-08-07T08:57:44;100970.78;;;26.15
45393;BMP280;31129;44.810;10.334;2022-08-07T09:00:13;100965.41;;;26.10
45393;BMP280;31129;44.810;10.334;2022-08-07T09:02:46;100963.97;;;26.53
45393;BMP280;31129;44.810;10.334;2022-08-07T09:08:18;100965.34;;;26.79
45393;BMP280;31129;44.810;10.334;2022-08-07T09:11:17;100975.34;;;26.55
45393;BMP280;31129;44.810;10.334;2022-08-07T09:13:57;100964.13;;;26.72
45393;BMP280;31129;44.810;10.334;2022-08-07T09:21:32;100964.84;;;26.46
45393;BMP280;31129;44.810;10.334;2022-08-07T09:24:39;100964.16;;;26.55
45393;BMP280;31129;44.810;10.334;2022-08-07T09:30:12;100953.66;;;26.73
45393;BMP280;31129;44.810;10.334;2022-08-07T09:33:20;100950.59;;;26.78
45393;BMP280;31129;44.810;10.334;2022-08-07T09:36:08;100952.25;;;26.81
45393;BMP280;31129;44.810;10.334;2022-08-07T09:39:30;100936.09;;;26.99
45393;BMP280;31129;44.810;10.334;2022-08-07T09:55:06;100937.38;;;27.25
45393;BMP280;31129;44.810;10.334;2022-08-07T09:58:01;100927.94;;;27.30
45393;BMP280;31129;44.810;10.334;2022-08-07T10:00:53;100931.22;;;27.36
45393;BMP280;31129;44.810;10.334;2022-08-07T10:03:52;100925.75;;;27.28
45393;BMP280;31129;44.810;10.334;2022-08-07T10:06:45;100920.63;;;27.44
45393;BMP280;31129;44.810;10.334;2022-08-07T10:12:21;100917.44;;;27.67
45393;BMP280;31129;44.810;10.334;2022-08-07T10:20:41;100909.00;;;28.14
45393;BMP280;31129;44.810;10.334;2022-08-07T10:29:10;100900.47;;;28.53
45393;BMP280;31129;44.810;10.334;2022-08-07T10:35:33;100885.56;;;28.50
45393;BMP280;31129;44.810;10.334;2022-08-07T10:38:13;100886.22;;;28.20
45393;BMP280;31129;44.810;10.334;2022-08-07T10:40:52;100885.56;;;28.50
45393;BMP280;31129;44.810;10.334;2022-08-07T10:43:28;100884.97;;;28.52
45393;BMP280;31129;44.810;10.334;2022-08-07T10:46:00;100878.25;;;28.76
45393;BMP280;31129;44.810;10.334;2022-08-07T10:51:35;100870.41;;;29.05
45393;BMP280;31129;44.810;10.334;2022-08-07T11:08:10;100861.88;;;28.63
45393;BMP280;31129;44.810;10.334;2022-08-07T11:10:41;100859.91;;;28.75
45393;BMP280;31129;44.810;10.334;2022-08-07T11:15:53;100863.19;;;28.62
45393;BMP280;31129;44.810;10.334;2022-08-07T11:18:43;100870.94;;;28.52
45393;BMP280;31129;44.810;10.334;2022-08-07T11:24:23;100870.31;;;29.36
45393;BMP280;31129;44.810;10.334;2022-08-07T11:26:56;100857.97;;;28.99
45393;BMP280;31129;44.810;10.334;2022-08-07T11:29:37;100860.78;;;28.99
45393;BMP280;31129;44.810;10.334;2022-08-07T11:32:38;100855.41;;;28.82
45393;BMP280;31129;44.810;10.334;2022-08-07T11:35:11;100850.81;;;28.86
45393;BMP280;31129;44.810;10.334;2022-08-07T12:04:37;100831.47;;;29.44
45393;BMP280;31129;44.810;10.334;2022-08-07T12:07:21;100839.91;;;29.44
45393;BMP280;31129;44.810;10.334;2022-08-07T12:10:03;100835.31;;;29.49
45393;BMP280;31129;44.810;10.334;2022-08-07T12:12:59;100824.16;;;29.51
45393;BMP280;31129;44.810;10.334;2022-08-07T12:15:31;100825.16;;;29.55
45393;BMP280;31129;44.810;10.334;2022-08-07T12:20:47;100807.34;;;30.42
45393;BMP280;31129;44.810;10.334;2022-08-07T12:24:18;100802.56;;;30.56
45393;BMP280;31129;44.810;10.334;2022-08-07T12:29:14;100783.69;;;30.58
45393;BMP280;31129;44.810;10.334;2022-08-07T12:31:57;100786.59;;;30.72
45393;BMP280;31129;44.810;10.334;2022-08-07T12:34:25;100780.84;;;30.58
45393;BMP280;31129;44.810;10.334;2022-08-07T12:36:53;100786.69;;;30.74
45393;BMP280;31129;44.810;10.334;2022-08-07T12:39:21;100785.06;;;30.94
45393;BMP280;31129;44.810;10.334;2022-08-07T12:41:51;100777.50;;;31.10
45393;BMP280;31129;44.810;10.334;2022-08-07T12:44:19;100787.59;;;31.02
45393;BMP280;31129;44.810;10.334;2022-08-07T12:46:54;100776.06;;;30.73
45393;BMP280;31129;44.810;10.334;2022-08-07T12:55:36;100767.47;;;31.07
45393;BMP280;31129;44.810;10.334;2022-08-07T12:58:04;100764.63;;;31.19
45393;BMP280;31129;44.810;10.334;2022-08-07T13:00:46;100759.03;;;31.33
45393;BMP280;31129;44.810;10.334;2022-08-07T13:06:08;100758.38;;;31.59
45393;BMP280;31129;44.810;10.334;2022-08-07T13:08:55;100754.34;;;31.76
45393;BMP280;31129;44.810;10.334;2022-08-07T13:14:45;100741.47;;;31.87
45393;BMP280;31129;44.810;10.334;2022-08-07T13:17:29;100731.75;;;32.17
45393;BMP280;31129;44.810;10.334;2022-08-07T13:20:33;100724.31;;;32.10
45393;BMP280;31129;44.810;10.334;2022-08-07T13:23:10;100727.34;;;32.28
45393;BMP280;31129;44.810;10.334;2022-08-07T13:26:06;100732.63;;;32.62
45393;BMP280;31129;44.810;10.334;2022-08-07T13:28:44;100729.03;;;32.19
45393;BMP280;31129;44.810;10.334;2022-08-07T13:31:41;100734.81;;;32.64
45393;BMP280;31129;44.810;10.334;2022-08-07T13:34:42;100732.53;;;32.60
45393;BMP280;31129;44.810;10.334;2022-08-07T13:42:35;100721.81;;;32.72
45393;BMP280;31129;44.810;10.334;2022-08-07T13:45:04;100707.78;;;32.75
45393;BMP280;31129;44.810;10.334;2022-08-07T13:47:34;100702.66;;;32.71
45393;BMP280;31129;44.810;10.334;2022-08-07T13:50:01;100695.41;;;32.97
45393;BMP280;31129;44.810;10.334;2022-08-07T13:52:30;100688.78;;;33.22
45393;BMP280;31129;44.810;10.334;2022-08-07T13:54:58;100687.69;;;33.13
45393;BMP280;31129;44.810;10.334;2022-08-07T13:57:29;100682.56;;;33.25
45393;BMP280;31129;44.810;10.334;2022-08-07T13:59:56;100672.28;;;33.48
45393;BMP280;31129;44.810;10.334;2022-08-07T14:02:26;100680.84;;;33.50
45393;BMP280;31129;44.810;10.334;2022-08-07T14:04:59;100674.28;;;33.45
45393;BMP280;31129;44.810;10.334;2022-08-07T14:07:31;100674.28;;;33.45
45393;BMP280;31129;44.810;10.334;2022-08-07T14:09:59;100666.41;;;33.28
45393;BMP280;31129;44.810;10.334;2022-08-07T14:12:27;100672.91;;;33.46
45393;BMP280;31129;44.810;10.334;2022-08-07T14:14:59;100675.56;;;33.58
45393;BMP280;31129;44.810;10.334;2022-08-07T14:17:28;100665.22;;;33.33
45393;BMP280;31129;44.810;10.334;2022-08-07T14:20:03;100663.41;;;33.40
45393;BMP280;31129;44.810;10.334;2022-08-07T14:22:31;100665.09;;;33.78
45393;BMP280;31129;44.810;10.334;2022-08-07T14:25:06;100665.63;;;33.90
45393;BMP280;31129;44.810;10.334;2022-08-07T14:27:37;100668.16;;;33.84
45393;BMP280;31129;44.810;10.334;2022-08-07T14:30:06;100669.88;;;33.73
45393;BMP280;31129;44.810;10.334;2022-08-07T14:32:44;100658.25;;;34.01
45393;BMP280;31129;44.810;10.334;2022-08-07T14:35:31;100661.25;;;33.87
45393;BMP280;31129;44.810;10.334;2022-08-07T14:37:57;100661.09;;;34.01
45393;BMP280;31129;44.810;10.334;2022-08-07T14:40:25;100660.88;;;34.12
45393;BMP280;31129;44.810;10.334;2022-08-07T14:42:57;100663.63;;;34.10
45393;BMP280;31129;44.810;10.334;2022-08-07T14:45:29;100661.72;;;33.99
45393;BMP280;31129;44.810;10.334;2022-08-07T14:47:57;100669.59;;;34.01
45393;BMP280;31129;44.810;10.334;2022-08-07T14:50:27;100670.25;;;34.17
45393;BMP280;31129;44.810;10.334;2022-08-07T14:52:53;100665.72;;;34.10
45393;BMP280;31129;44.810;10.334;2022-08-07T14:55:20;100668.56;;;34.27
45393;BMP280;31129;44.810;10.334;2022-08-07T14:57:47;100664.66;;;34.01
45393;BMP280;31129;44.810;10.334;2022-08-07T15:00:14;100669.28;;;34.10
45393;BMP280;31129;44.810;10.334;2022-08-07T15:02:43;100668.91;;;33.85
45393;BMP280;31129;44.810;10.334;2022-08-07T15:05:13;100662.91;;;34.27
45393;BMP280;31129;44.810;10.334;2022-08-07T15:07:41;100661.38;;;34.24
45393;BMP280;31129;44.810;10.334;2022-08-07T15:10:08;100645.56;;;34.19
45393;BMP280;31129;44.810;10.334;2022-08-07T15:12:35;100644.06;;;34.34
45393;BMP280;31129;44.810;10.334;2022-08-07T15:15:07;100653.84;;;34.66
45393;BMP280;31129;44.810;10.334;2022-08-07T15:17:39;100645.81;;;34.43
45393;BMP280;31129;44.810;10.334;2022-08-07T15:20:08;100649.56;;;34.48
45393;BMP280;31129;44.810;10.334;2022-08-07T15:22:48;100634.00;;;34.31
45393;BMP280;31129;44.810;10.334;2022-08-07T15:25:22;100651.50;;;34.25
45393;BMP280;31129;44.810;10.334;2022-08-07T15:27:53;100634.00;;;34.49
45393;BMP280;31129;44.810;10.334;2022-08-07T15:30:22;100630.97;;;34.62
45393;BMP280;31129;44.810;10.334;2022-08-07T15:32:49;100637.69;;;34.71
45393;BMP280;31129;44.810;10.334;2022-08-07T15:35:20;100634.47;;;34.61
45393;BMP280;31129;44.810;10.334;2022-08-07T15:37:52;100630.06;;;34.75
45393;BMP280;31129;44.810;10.334;2022-08-07T15:40:19;100626.28;;;34.69
45393;BMP280;31129;44.810;10.334;2022-08-07T15:42:52;100632.38;;;34.08
45393;BMP280;31129;44.810;10.334;2022-08-07T15:48:02;100639.66;;;34.13
45393;BMP280;31129;44.810;10.334;2022-08-07T15:50:33;100627.75;;;34.34
45393;BMP280;31129;44.810;10.334;2022-08-07T15:55:57;100635.69;;;34.03
45393;BMP280;31129;44.810;10.334;2022-08-07T16:01:39;100651.53;;;33.28
45393;BMP280;31129;44.810;10.334;2022-08-07T16:04:10;100640.56;;;32.89
45393;BMP280;31129;44.810;10.334;2022-08-07T16:17:37;100644.69;;;32.00
45393;BMP280;31129;44.810;10.334;2022-08-07T16:25:42;100633.41;;;31.59
45393;BMP280;31129;44.810;10.334;2022-08-07T16:33:49;100628.56;;;31.89
45393;BMP280;31129;44.810;10.334;2022-08-07T16:36:28;100628.94;;;32.38
45393;BMP280;31129;44.810;10.334;2022-08-07T16:45:16;100616.81;;;32.35
45393;BMP280;31129;44.810;10.334;2022-08-07T16:58:32;100610.41;;;31.78
45393;BMP280;31129;44.810;10.334;2022-08-07T17:01:33;100608.38;;;32.08